sensor_id;sensor_type;location;lat;lon;timestamp;P1;durP1;ratioP1;P2;durP2;ratioP2
10979;SDS011;5543;51.734;8.744;2023-05-10T00:02:07;1.83;;;1.65;;
10979;SDS011;5543;51.734;8.744;2023-05-10T00:04:36;2.20;;;1.85;;
10979;SDS011;5543;51.734;8.744;2023-05-10T00:07:05;2.17;;;1.50;;
10979;SDS011;5543;51.734;8.744;2023-05-10T00:09:33;1.65;;;1.35;;
10979;SDS011;5543;51.734;8.744;2023-05-10T00:12:01;2.88;;;2.58;;
10979;SDS011;5543;51.734;8.744;2023-05-10T00:14:29;2.42;;;1.90;;
10979;SDS011;5543;51.734;8.744;2023-05-10T00:16:57;3.83;;;2.58;;
10979;SDS011;5543;51.734;8.744;2023-05-10T00:19:26;2.45;;;1.88;;
10979;SDS011;5543;51.734;8.744;2023-05-10T00:21:54;2.25;;;1.70;;
10979;SDS011;5543;51.734;8.744;2023-05-10T00:24:23;2.25;;;1.65;;
10979;SDS011;5543;51.734;8.744;2023-05-10T00:26:51;2.08;;;1.95;;
10979;SDS011;5543;51.734;8.744;2023-05-10T00:29:19;2.45;;;2.25;;
10979;SDS011;5543;51.734;8.744;2023-05-10T00:31:47;2.10;;;1.70;;
10979;SDS011;5543;51.734;8.744;2023-05-10T00:34:15;2.13;;;1.73;;
10979;SDS011;5543;51.734;8.744;2023-05-10T00:36:43;2.10;;;1.90;;
10979;SDS011;5543;51.734;8.744;2023-05-10T00:39:12;3.38;;;2.03;;
10979;SDS011;5543;51.734;8.744;2023-05-10T00:41:41;2.72;;;2.53;;
10979;SDS011;5543;51.734;8.744;2023-05-10T00:44:09;2.28;;;1.73;;
10979;SDS011;5543;51.734;8.744;2023-05-10T00:46:37;2.10;;;1.90;;
10979;SDS011;5543;51.734;8.744;2023-05-10T00:49:05;2.10;;;1.58;;
10979;SDS011;5543;51.734;8.744;2023-05-10T00:51:33;2.10;;;1.90;;
10979;SDS011;5543;51.734;8.744;2023-05-10T00:54:02;1.98;;;1.77;;
10979;SDS011;5543;51.734;8.744;2023-05-10T00:56:31;2.20;;;2.00;;
10979;SDS011;5543;51.734;8.744;2023-05-10T00:59:00;2.08;;;1.88;;
10979;SDS011;5543;51.734;8.744;2023-05-10T01:01:28;2.05;;;1.77;;
10979;SDS011;5543;51.734;8.744;2023-05-10T01:03:58;2.17;;;1.92;;
10979;SDS011;5543;51.734;8.744;2023-05-10T01:06:27;1.80;;;1.70;;
10979;SDS011;5543;51.734;8.744;2023-05-10T01:12:51;2.83;;;1.88;;
10979;SDS011;5543;51.734;8.744;2023-05-10T01:15:21;2.00;;;1.52;;
10979;SDS011;5543;51.734;8.744;2023-05-10T01:17:49;2.13;;;1.77;;
10979;SDS011;5543;51.734;8.744;2023-05-10T01:20:18;2.13;;;1.98;;
10979;SDS011;5543;51.734;8.744;2023-05-10T01:26:07;2.33;;;1.95;;
10979;SDS011;5543;51.734;8.744;2023-05-10T01:29:11;1.02;;;1.02;;
10979;SDS011;5543;51.734;8.744;2023-05-10T01:31:57;2.05;;;1.85;;
10979;SDS011;5543;51.734;8.744;2023-05-10T01:34:41;2.25;;;1.15;;
10979;SDS011;5543;51.734;8.744;2023-05-10T01:37:15;1.33;;;1.08;;
10979;SDS011;5543;51.734;8.744;2023-05-10T01:39:48;1.15;;;0.93;;
10979;SDS011;5543;51.734;8.744;2023-05-10T01:42:23;1.17;;;1.08;;
10979;SDS011;5543;51.734;8.744;2023-05-10T01:44:58;0.95;;;0.95;;
10979;SDS011;5543;51.734;8.744;2023-05-10T01:47:33;1.98;;;1.48;;
10979;SDS011;5543;51.734;8.744;2023-05-10T01:50:06;1.42;;;1.33;;
10979;SDS011;5543;51.734;8.744;2023-05-10T01:52:41;2.25;;;1.58;;
10979;SDS011;5543;51.734;8.744;2023-05-10T01:55:11;0.70;;;0.70;;
10979;SDS011;5543;51.734;8.744;2023-05-10T01:57:42;0.32;;;0.32;;
10979;SDS011;5543;51.734;8.744;2023-05-10T02:00:12;0.50;;;0.50;;
10979;SDS011;5543;51.734;8.744;2023-05-10T02:02:45;0.43;;;0.43;;
10979;SDS011;5543;51.734;8.744;2023-05-10T02:05:15;0.52;;;0.52;;
10979;SDS011;5543;51.734;8.744;2023-05-10T02:07:44;0.80;;;0.80;;
10979;SDS011;5543;51.734;8.744;2023-05-10T02:10:13;0.50;;;0.50;;
10979;SDS011;5543;51.734;8.744;2023-05-10T02:12:44;0.82;;;0.70;;
10979;SDS011;5543;51.734;8.744;2023-05-10T02:15:17;0.80;;;0.80;;
10979;SDS011;5543;51.734;8.744;2023-05-10T02:17:49;0.60;;;0.60;;
10979;SDS011;5543;51.734;8.744;2023-05-10T02:20:18;0.57;;;0.57;;
10979;SDS011;5543;51.734;8.744;2023-05-10T02:22:48;0.52;;;0.52;;
10979;SDS011;5543;51.734;8.744;2023-05-10T02:25:18;0.73;;;0.73;;
10979;SDS011;5543;51.734;8.744;2023-05-10T02:27:48;1.13;;;1.02;;
10979;SDS011;5543;51.734;8.744;2023-05-10T02:30:18;0.68;;;0.68;;
10979;SDS011;5543;51.734;8.744;2023-05-10T02:32:48;0.50;;;0.50;;
10979;SDS011;5543;51.734;8.744;2023-05-10T02:35:19;0.80;;;0.55;;
10979;SDS011;5543;51.734;8.744;2023-05-10T02:37:47;0.88;;;0.82;;
10979;SDS011;5543;51.734;8.744;2023-05-10T02:40:17;0.88;;;0.85;;
10979;SDS011;5543;51.734;8.744;2023-05-10T02:42:48;0.50;;;0.50;;
10979;SDS011;5543;51.734;8.744;2023-05-10T02:45:20;0.57;;;0.57;;
10979;SDS011;5543;51.734;8.744;2023-05-10T02:47:54;1.63;;;1.13;;
10979;SDS011;5543;51.734;8.744;2023-05-10T02:50:23;0.80;;;0.80;;
10979;SDS011;5543;51.734;8.744;2023-05-10T02:52:56;0.60;;;0.60;;
10979;SDS011;5543;51.734;8.744;2023-05-10T02:55:31;0.68;;;0.68;;
10979;SDS011;5543;51.734;8.744;2023-05-10T02:58:07;0.40;;;0.40;;
10979;SDS011;5543;51.734;8.744;2023-05-10T03:00:36;0.47;;;0.47;;
10979;SDS011;5543;51.734;8.744;2023-05-10T03:03:06;0.60;;;0.60;;
10979;SDS011;5543;51.734;8.744;2023-05-10T03:05:34;0.82;;;0.82;;
10979;SDS011;5543;51.734;8.744;2023-05-10T03:08:02;0.20;;;0.20;;
10979;SDS011;5543;51.734;8.744;2023-05-10T03:10:32;0.70;;;0.70;;
10979;SDS011;5543;51.734;8.744;2023-05-10T03:13:06;0.50;;;0.50;;
10979;SDS011;5543;51.734;8.744;2023-05-10T03:15:42;0.80;;;0.77;;
10979;SDS011;5543;51.734;8.744;2023-05-10T03:18:22;0.75;;;0.60;;
10979;SDS011;5543;51.734;8.744;2023-05-10T03:20:57;1.13;;;1.02;;
10979;SDS011;5543;51.734;8.744;2023-05-10T03:23:30;1.00;;;0.90;;
10979;SDS011;5543;51.734;8.744;2023-05-10T03:26:02;0.98;;;0.98;;
10979;SDS011;5543;51.734;8.744;2023-05-10T03:28:31;0.52;;;0.52;;
10979;SDS011;5543;51.734;8.744;2023-05-10T03:31:02;0.90;;;0.90;;
10979;SDS011;5543;51.734;8.744;2023-05-10T03:33:33;0.65;;;0.65;;
10979;SDS011;5543;51.734;8.744;2023-05-10T03:36:01;1.02;;;0.80;;
10979;SDS011;5543;51.734;8.744;2023-05-10T03:38:29;0.70;;;0.70;;
10979;SDS011;5543;51.734;8.744;2023-05-10T03:40:57;0.68;;;0.68;;
10979;SDS011;5543;51.734;8.744;2023-05-10T03:43:25;0.70;;;0.70;;
10979;SDS011;5543;51.734;8.744;2023-05-10T03:45:53;0.60;;;0.60;;
10979;SDS011;5543;51.734;8.744;2023-05-10T03:48:22;0.80;;;0.80;;
10979;SDS011;5543;51.734;8.744;2023-05-10T03:50:52;0.73;;;0.73;;
10979;SDS011;5543;51.734;8.744;2023-05-10T03:53:20;0.80;;;0.80;;
10979;SDS011;5543;51.734;8.744;2023-05-10T03:55:48;0.43;;;0.38;;
10979;SDS011;5543;51.734;8.744;2023-05-10T03:58:16;1.40;;;0.60;;
10979;SDS011;5543;51.734;8.744;2023-05-10T04:00:45;0.98;;;0.98;;
10979;SDS011;5543;51.734;8.744;2023-05-10T04:03:13;0.60;;;0.60;;
10979;SDS011;5543;51.734;8.744;2023-05-10T04:05:42;0.43;;;0.43;;
10979;SDS011;5543;51.734;8.744;2023-05-10T04:08:11;0.68;;;0.60;;
10979;SDS011;5543;51.734;8.744;2023-05-10T04:10:40;0.60;;;0.60;;
10979;SDS011;5543;51.734;8.744;2023-05-10T04:13:09;0.57;;;0.57;;
10979;SDS011;5543;51.734;8.744;2023-05-10T04:15:37;0.43;;;0.43;;
10979;SDS011;5543;51.734;8.744;2023-05-10T04:18:06;0.55;;;0.55;;
10979;SDS011;5543;51.734;8.744;2023-05-10T04:20:34;0.57;;;0.57;;
10979;SDS011;5543;51.734;8.744;2023-05-10T04:23:05;0.45;;;0.45;;
10979;SDS011;5543;51.734;8.744;2023-05-10T04:25:35;0.50;;;0.50;;
10979;SDS011;5543;51.734;8.744;2023-05-10T04:28:03;0.68;;;0.68;;
10979;SDS011;5543;51.734;8.744;2023-05-10T04:30:31;0.85;;;0.77;;
10979;SDS011;5543;51.734;8.744;2023-05-10T04:32:59;0.65;;;0.65;;
10979;SDS011;5543;51.734;8.744;2023-05-10T04:35:28;0.50;;;0.50;;
10979;SDS011;5543;51.734;8.744;2023-05-10T04:37:56;0.65;;;0.65;;
10979;SDS011;5543;51.734;8.744;2023-05-10T04:40:24;0.50;;;0.50;;
10979;SDS011;5543;51.734;8.744;2023-05-10T04:42:54;0.70;;;0.70;;
10979;SDS011;5543;51.734;8.744;2023-05-10T04:45:23;0.75;;;0.75;;
10979;SDS011;5543;51.734;8.744;2023-05-10T04:47:51;0.60;;;0.60;;
10979;SDS011;5543;51.734;8.744;2023-05-10T04:50:19;0.28;;;0.28;;
10979;SDS011;5543;51.734;8.744;2023-05-10T04:52:47;0.30;;;0.30;;
10979;SDS011;5543;51.734;8.744;2023-05-10T04:55:15;0.35;;;0.35;;
10979;SDS011;5543;51.734;8.744;2023-05-10T04:57:43;0.82;;;0.35;;
10979;SDS011;5543;51.734;8.744;2023-05-10T05:00:13;0.30;;;0.30;;
10979;SDS011;5543;51.734;8.744;2023-05-10T05:02:42;0.30;;;0.30;;
10979;SDS011;5543;51.734;8.744;2023-05-10T05:05:12;0.30;;;0.30;;
10979;SDS011;5543;51.734;8.744;2023-05-10T05:07:40;0.00;;;0.00;;
10979;SDS011;5543;51.734;8.744;2023-05-10T05:10:08;0.20;;;0.20;;
10979;SDS011;5543;51.734;8.744;2023-05-10T05:12:36;0.35;;;0.32;;
10979;SDS011;5543;51.734;8.744;2023-05-10T05:15:05;0.50;;;0.50;;
10979;SDS011;5543;51.734;8.744;2023-05-10T05:17:36;0.10;;;0.10;;
10979;SDS011;5543;51.734;8.744;2023-05-10T05:20:05;0.68;;;0.68;;
10979;SDS011;5543;51.734;8.744;2023-05-10T05:22:35;0.40;;;0.40;;
10979;SDS011;5543;51.734;8.744;2023-05-10T05:25:03;0.30;;;0.30;;
10979;SDS011;5543;51.734;8.744;2023-05-10T05:27:32;0.32;;;0.32;;
10979;SDS011;5543;51.734;8.744;2023-05-10T05:30:00;0.30;;;0.30;;
10979;SDS011;5543;51.734;8.744;2023-05-10T05:32:29;0.40;;;0.40;;
10979;SDS011;5543;51.734;8.744;2023-05-10T05:34:58;0.82;;;0.80;;
10979;SDS011;5543;51.734;8.744;2023-05-10T05:37:26;0.40;;;0.40;;
10979;SDS011;5543;51.734;8.744;2023-05-10T05:39:54;0.60;;;0.55;;
10979;SDS011;5543;51.734;8.744;2023-05-10T05:42:23;0.65;;;0.65;;
10979;SDS011;5543;51.734;8.744;2023-05-10T05:44:51;0.30;;;0.30;;
10979;SDS011;5543;51.734;8.744;2023-05-10T05:47:19;0.60;;;0.60;;
10979;SDS011;5543;51.734;8.744;2023-05-10T05:49:47;0.38;;;0.38;;
10979;SDS011;5543;51.734;8.744;2023-05-10T05:52:16;0.60;;;0.50;;
10979;SDS011;5543;51.734;8.744;2023-05-10T05:54:44;0.40;;;0.30;;
10979;SDS011;5543;51.734;8.744;2023-05-10T05:57:12;0.65;;;0.40;;
10979;SDS011;5543;51.734;8.744;2023-05-10T05:59:40;0.50;;;0.50;;
10979;SDS011;5543;51.734;8.744;2023-05-10T06:02:10;1.20;;;0.50;;
10979;SDS011;5543;51.734;8.744;2023-05-10T06:04:38;0.65;;;0.63;;
10979;SDS011;5543;51.734;8.744;2023-05-10T06:07:09;0.65;;;0.65;;
10979;SDS011;5543;51.734;8.744;2023-05-10T06:09:39;0.60;;;0.60;;
10979;SDS011;5543;51.734;8.744;2023-05-10T06:12:07;0.45;;;0.43;;
10979;SDS011;5543;51.734;8.744;2023-05-10T06:14:36;0.25;;;0.25;;
10979;SDS011;5543;51.734;8.744;2023-05-10T06:17:04;0.70;;;0.70;;
10979;SDS011;5543;51.734;8.744;2023-05-10T06:19:33;0.35;;;0.35;;
10979;SDS011;5543;51.734;8.744;2023-05-10T06:22:01;0.40;;;0.40;;
10979;SDS011;5543;51.734;8.744;2023-05-10T06:24:29;0.35;;;0.35;;
10979;SDS011;5543;51.734;8.744;2023-05-10T06:26:59;0.20;;;0.20;;
10979;SDS011;5543;51.734;8.744;2023-05-10T06:29:28;0.40;;;0.40;;
10979;SDS011;5543;51.734;8.744;2023-05-10T06:31:56;0.65;;;0.65;;
10979;SDS011;5543;51.734;8.744;2023-05-10T06:34:24;0.20;;;0.15;;
10979;SDS011;5543;51.734;8.744;2023-05-10T06:36:53;0.40;;;0.40;;
10979;SDS011;5543;51.734;8.744;2023-05-10T06:39:21;0.45;;;0.43;;
10979;SDS011;5543;51.734;8.744;2023-05-10T06:41:49;0.35;;;0.35;;
10979;SDS011;5543;51.734;8.744;2023-05-10T06:44:19;0.17;;;0.17;;
10979;SDS011;5543;51.734;8.744;2023-05-10T06:46:47;0.32;;;0.30;;
10979;SDS011;5543;51.734;8.744;2023-05-10T06:49:16;0.40;;;0.40;;
10979;SDS011;5543;51.734;8.744;2023-05-10T06:51:45;0.65;;;0.60;;
10979;SDS011;5543;51.734;8.744;2023-05-10T06:54:13;0.60;;;0.40;;
10979;SDS011;5543;51.734;8.744;2023-05-10T06:56:42;0.45;;;0.40;;
10979;SDS011;5543;51.734;8.744;2023-05-10T06:59:11;0.35;;;0.35;;
10979;SDS011;5543;51.734;8.744;2023-05-10T07:01:41;0.22;;;0.10;;
10979;SDS011;5543;51.734;8.744;2023-05-10T07:04:09;0.60;;;0.60;;
10979;SDS011;5543;51.734;8.744;2023-05-10T07:06:38;0.43;;;0.43;;
10979;SDS011;5543;51.734;8.744;2023-05-10T07:09:06;0.22;;;0.22;;
10979;SDS011;5543;51.734;8.744;2023-05-10T07:11:34;0.30;;;0.30;;
10979;SDS011;5543;51.734;8.744;2023-05-10T07:14:03;0.60;;;0.60;;
10979;SDS011;5543;51.734;8.744;2023-05-10T07:16:32;0.70;;;0.70;;
10979;SDS011;5543;51.734;8.744;2023-05-10T07:19:01;0.38;;;0.38;;
10979;SDS011;5543;51.734;8.744;2023-05-10T07:21:31;0.68;;;0.60;;
10979;SDS011;5543;51.734;8.744;2023-05-10T07:23:59;0.55;;;0.50;;
10979;SDS011;5543;51.734;8.744;2023-05-10T07:26:28;0.50;;;0.50;;
10979;SDS011;5543;51.734;8.744;2023-05-10T07:28:56;0.57;;;0.52;;
10979;SDS011;5543;51.734;8.744;2023-05-10T07:31:24;0.60;;;0.60;;
10979;SDS011;5543;51.734;8.744;2023-05-10T07:33:52;0.30;;;0.30;;
10979;SDS011;5543;51.734;8.744;2023-05-10T07:36:22;0.47;;;0.40;;
10979;SDS011;5543;51.734;8.744;2023-05-10T07:38:50;1.65;;;0.40;;
10979;SDS011;5543;51.734;8.744;2023-05-10T07:41:18;0.50;;;0.50;;
10979;SDS011;5543;51.734;8.744;2023-05-10T07:43:47;0.30;;;0.30;;
10979;SDS011;5543;51.734;8.744;2023-05-10T07:46:16;0.60;;;0.60;;
10979;SDS011;5543;51.734;8.744;2023-05-10T07:48:45;0.85;;;0.60;;
10979;SDS011;5543;51.734;8.744;2023-05-10T07:51:14;0.47;;;0.47;;
10979;SDS011;5543;51.734;8.744;2023-05-10T07:53:43;0.65;;;0.65;;
10979;SDS011;5543;51.734;8.744;2023-05-10T07:56:21;0.60;;;0.60;;
10979;SDS011;5543;51.734;8.744;2023-05-10T07:58:53;0.60;;;0.60;;
10979;SDS011;5543;51.734;8.744;2023-05-10T08:01:21;1.00;;;0.90;;
10979;SDS011;5543;51.734;8.744;2023-05-10T08:03:50;1.13;;;1.02;;
10979;SDS011;5543;51.734;8.744;2023-05-10T08:06:20;0.90;;;0.57;;
10979;SDS011;5543;51.734;8.744;2023-05-10T08:08:49;0.60;;;0.60;;
10979;SDS011;5543;51.734;8.744;2023-05-10T08:11:19;0.70;;;0.70;;
10979;SDS011;5543;51.734;8.744;2023-05-10T08:13:49;1.33;;;1.08;;
10979;SDS011;5543;51.734;8.744;2023-05-10T08:16:19;0.68;;;0.68;;
10979;SDS011;5543;51.734;8.744;2023-05-10T08:18:48;0.70;;;0.68;;
10979;SDS011;5543;51.734;8.744;2023-05-10T08:21:17;0.98;;;0.88;;
10979;SDS011;5543;51.734;8.744;2023-05-10T08:23:45;0.65;;;0.65;;
10979;SDS011;5543;51.734;8.744;2023-05-10T08:26:15;0.50;;;0.50;;
10979;SDS011;5543;51.734;8.744;2023-05-10T08:28:43;1.88;;;0.88;;
10979;SDS011;5543;51.734;8.744;2023-05-10T08:31:12;1.48;;;1.27;;
10979;SDS011;5543;51.734;8.744;2023-05-10T08:33:41;1.50;;;1.00;;
10979;SDS011;5543;51.734;8.744;2023-05-10T08:36:10;1.55;;;1.45;;
10979;SDS011;5543;51.734;8.744;2023-05-10T08:38:40;1.60;;;1.25;;
10979;SDS011;5543;51.734;8.744;2023-05-10T08:41:09;1.27;;;1.15;;
10979;SDS011;5543;51.734;8.744;2023-05-10T08:43:40;2.35;;;1.98;;
10979;SDS011;5543;51.734;8.744;2023-05-10T08:46:14;1.40;;;1.10;;
10979;SDS011;5543;51.734;8.744;2023-05-10T08:48:45;1.88;;;1.77;;
10979;SDS011;5543;51.734;8.744;2023-05-10T08:51:14;1.70;;;1.50;;
10979;SDS011;5543;51.734;8.744;2023-05-10T08:53:45;2.00;;;1.77;;
10979;SDS011;5543;51.734;8.744;2023-05-10T08:56:13;2.20;;;1.67;;
10979;SDS011;5543;51.734;8.744;2023-05-10T08:58:45;2.30;;;1.67;;
10979;SDS011;5543;51.734;8.744;2023-05-10T09:01:13;2.03;;;1.70;;
10979;SDS011;5543;51.734;8.744;2023-05-10T09:03:45;1.77;;;1.52;;
10979;SDS011;5543;51.734;8.744;2023-05-10T09:06:14;2.00;;;1.50;;
10979;SDS011;5543;51.734;8.744;2023-05-10T09:08:43;1.90;;;1.30;;
10979;SDS011;5543;51.734;8.744;2023-05-10T09:11:12;2.05;;;1.85;;
10979;SDS011;5543;51.734;8.744;2023-05-10T09:13:40;1.80;;;1.67;;
10979;SDS011;5543;51.734;8.744;2023-05-10T09:16:11;2.88;;;1.85;;
10979;SDS011;5543;51.734;8.744;2023-05-10T09:18:45;1.58;;;1.38;;
10979;SDS011;5543;51.734;8.744;2023-05-10T09:21:13;2.17;;;1.60;;
10979;SDS011;5543;51.734;8.744;2023-05-10T09:23:42;2.92;;;1.92;;
10979;SDS011;5543;51.734;8.744;2023-05-10T09:26:13;2.85;;;2.00;;
10979;SDS011;5543;51.734;8.744;2023-05-10T09:28:51;3.63;;;2.20;;
10979;SDS011;5543;51.734;8.744;2023-05-10T09:31:47;2.85;;;1.73;;
10979;SDS011;5543;51.734;8.744;2023-05-10T09:34:19;3.08;;;2.20;;
10979;SDS011;5543;51.734;8.744;2023-05-10T09:36:52;2.67;;;2.00;;
10979;SDS011;5543;51.734;8.744;2023-05-10T09:39:25;3.00;;;1.98;;
10979;SDS011;5543;51.734;8.744;2023-05-10T09:42:00;2.85;;;1.98;;
10979;SDS011;5543;51.734;8.744;2023-05-10T09:44:32;2.15;;;1.63;;
10979;SDS011;5543;51.734;8.744;2023-05-10T09:47:04;2.85;;;2.30;;
10979;SDS011;5543;51.734;8.744;2023-05-10T09:49:32;1.77;;;1.65;;
10979;SDS011;5543;51.734;8.744;2023-05-10T09:52:02;2.13;;;1.58;;
10979;SDS011;5543;51.734;8.744;2023-05-10T09:54:32;2.53;;;2.03;;
10979;SDS011;5543;51.734;8.744;2023-05-10T09:57:02;5.15;;;2.75;;
10979;SDS011;5543;51.734;8.744;2023-05-10T09:59:32;3.75;;;2.90;;
10979;SDS011;5543;51.734;8.744;2023-05-10T10:02:02;4.50;;;3.30;;
10979;SDS011;5543;51.734;8.744;2023-05-10T10:04:32;4.30;;;3.00;;
10979;SDS011;5543;51.734;8.744;2023-05-10T10:07:07;3.92;;;2.65;;
10979;SDS011;5543;51.734;8.744;2023-05-10T10:09:36;6.68;;;4.00;;
10979;SDS011;5543;51.734;8.744;2023-05-10T10:12:04;3.85;;;3.08;;
10979;SDS011;5543;51.734;8.744;2023-05-10T10:14:33;4.20;;;3.03;;
10979;SDS011;5543;51.734;8.744;2023-05-10T10:17:02;3.28;;;2.97;;
10979;SDS011;5543;51.734;8.744;2023-05-10T10:19:35;4.35;;;2.95;;
10979;SDS011;5543;51.734;8.744;2023-05-10T10:22:04;4.88;;;3.55;;
10979;SDS011;5543;51.734;8.744;2023-05-10T10:24:33;4.65;;;4.03;;
10979;SDS011;5543;51.734;8.744;2023-05-10T10:27:03;5.78;;;4.75;;
10979;SDS011;5543;51.734;8.744;2023-05-10T10:29:39;3.92;;;3.53;;
10979;SDS011;5543;51.734;8.744;2023-05-10T10:32:19;4.68;;;3.53;;
10979;SDS011;5543;51.734;8.744;2023-05-10T10:34:55;4.70;;;3.78;;
10979;SDS011;5543;51.734;8.744;2023-05-10T10:37:23;5.50;;;3.85;;
10979;SDS011;5543;51.734;8.744;2023-05-10T10:40:23;5.13;;;3.40;;
10979;SDS011;5543;51.734;8.744;2023-05-10T10:42:52;4.30;;;3.22;;
10979;SDS011;5543;51.734;8.744;2023-05-10T10:45:21;5.05;;;3.90;;
10979;SDS011;5543;51.734;8.744;2023-05-10T10:47:53;3.13;;;2.50;;
10979;SDS011;5543;51.734;8.744;2023-05-10T10:50:56;4.75;;;2.92;;
10979;SDS011;5543;51.734;8.744;2023-05-10T10:53:26;3.38;;;2.45;;
10979;SDS011;5543;51.734;8.744;2023-05-10T10:56:02;4.20;;;2.70;;
10979;SDS011;5543;51.734;8.744;2023-05-10T10:58:36;3.88;;;2.00;;
10979;SDS011;5543;51.734;8.744;2023-05-10T11:01:11;4.55;;;3.88;;
10979;SDS011;5543;51.734;8.744;2023-05-10T11:06:47;4.72;;;4.00;;
10979;SDS011;5543;51.734;8.744;2023-05-10T11:09:16;4.00;;;3.50;;
10979;SDS011;5543;51.734;8.744;2023-05-10T11:11:51;3.67;;;3.15;;
10979;SDS011;5543;51.734;8.744;2023-05-10T11:14:22;3.17;;;2.90;;
10979;SDS011;5543;51.734;8.744;2023-05-10T11:16:50;4.97;;;3.63;;
10979;SDS011;5543;51.734;8.744;2023-05-10T11:19:19;4.00;;;3.08;;
10979;SDS011;5543;51.734;8.744;2023-05-10T11:21:50;3.65;;;3.28;;
10979;SDS011;5543;51.734;8.744;2023-05-10T11:24:21;3.90;;;3.35;;
10979;SDS011;5543;51.734;8.744;2023-05-10T11:26:50;5.13;;;3.40;;
10979;SDS011;5543;51.734;8.744;2023-05-10T11:29:18;3.67;;;3.30;;
10979;SDS011;5543;51.734;8.744;2023-05-10T11:31:47;4.47;;;3.97;;
10979;SDS011;5543;51.734;8.744;2023-05-10T11:34:23;4.68;;;3.58;;
10979;SDS011;5543;51.734;8.744;2023-05-10T11:36:54;5.43;;;3.85;;
10979;SDS011;5543;51.734;8.744;2023-05-10T11:39:25;5.10;;;3.92;;
10979;SDS011;5543;51.734;8.744;2023-05-10T11:41:55;5.13;;;3.88;;
10979;SDS011;5543;51.734;8.744;2023-05-10T11:44:24;4.57;;;3.55;;
10979;SDS011;5543;51.734;8.744;2023-05-10T11:46:58;4.07;;;2.70;;
10979;SDS011;5543;51.734;8.744;2023-05-10T11:49:27;3.75;;;2.67;;
10979;SDS011;5543;51.734;8.744;2023-05-10T11:52:04;4.32;;;2.83;;
10979;SDS011;5543;51.734;8.744;2023-05-10T11:54:33;3.40;;;3.10;;
10979;SDS011;5543;51.734;8.744;2023-05-10T11:57:02;4.22;;;2.83;;
10979;SDS011;5543;51.734;8.744;2023-05-10T11:59:31;3.25;;;2.63;;
10979;SDS011;5543;51.734;8.744;2023-05-10T12:01:59;4.28;;;3.08;;
10979;SDS011;5543;51.734;8.744;2023-05-10T12:04:27;3.50;;;2.80;;
10979;SDS011;5543;51.734;8.744;2023-05-10T12:06:56;3.10;;;2.78;;
10979;SDS011;5543;51.734;8.744;2023-05-10T12:09:26;5.32;;;3.20;;
10979;SDS011;5543;51.734;8.744;2023-05-10T12:12:08;3.80;;;3.20;;
10979;SDS011;5543;51.734;8.744;2023-05-10T12:14:37;2.65;;;2.42;;
10979;SDS011;5543;51.734;8.744;2023-05-10T12:17:06;4.65;;;2.88;;
10979;SDS011;5543;51.734;8.744;2023-05-10T12:19:41;3.63;;;2.70;;
10979;SDS011;5543;51.734;8.744;2023-05-10T12:22:10;3.03;;;2.60;;
10979;SDS011;5543;51.734;8.744;2023-05-10T12:24:39;2.88;;;2.28;;
10979;SDS011;5543;51.734;8.744;2023-05-10T12:27:07;2.67;;;2.10;;
10979;SDS011;5543;51.734;8.744;2023-05-10T12:29:36;1.30;;;1.20;;
10979;SDS011;5543;51.734;8.744;2023-05-10T12:32:10;1.27;;;1.08;;
10979;SDS011;5543;51.734;8.744;2023-05-10T12:34:38;1.52;;;1.05;;
10979;SDS011;5543;51.734;8.744;2023-05-10T12:37:07;0.85;;;0.82;;
10979;SDS011;5543;51.734;8.744;2023-05-10T12:39:41;1.50;;;1.30;;
10979;SDS011;5543;51.734;8.744;2023-05-10T12:42:12;1.00;;;0.90;;
10979;SDS011;5543;51.734;8.744;2023-05-10T12:44:40;0.65;;;0.65;;
10979;SDS011;5543;51.734;8.744;2023-05-10T12:47:09;0.80;;;0.80;;
10979;SDS011;5543;51.734;8.744;2023-05-10T12:49:37;0.80;;;0.80;;
10979;SDS011;5543;51.734;8.744;2023-05-10T12:52:06;1.02;;;0.93;;
10979;SDS011;5543;51.734;8.744;2023-05-10T12:54:34;0.70;;;0.70;;
10979;SDS011;5543;51.734;8.744;2023-05-10T12:57:04;0.80;;;0.70;;
10979;SDS011;5543;51.734;8.744;2023-05-10T12:59:32;1.30;;;1.00;;
10979;SDS011;5543;51.734;8.744;2023-05-10T13:02:03;1.00;;;0.75;;
10979;SDS011;5543;51.734;8.744;2023-05-10T13:04:32;0.68;;;0.68;;
10979;SDS011;5543;51.734;8.744;2023-05-10T13:07:01;1.05;;;0.95;;
10979;SDS011;5543;51.734;8.744;2023-05-10T13:09:30;0.90;;;0.80;;
10979;SDS011;5543;51.734;8.744;2023-05-10T13:11:59;0.90;;;0.88;;
10979;SDS011;5543;51.734;8.744;2023-05-10T13:14:30;0.88;;;0.80;;
10979;SDS011;5543;51.734;8.744;2023-05-10T13:16:58;0.80;;;0.80;;
10979;SDS011;5543;51.734;8.744;2023-05-10T13:19:27;1.10;;;1.00;;
10979;SDS011;5543;51.734;8.744;2023-05-10T13:21:55;1.20;;;0.80;;
10979;SDS011;5543;51.734;8.744;2023-05-10T13:24:24;0.93;;;0.93;;
10979;SDS011;5543;51.734;8.744;2023-05-10T13:26:52;0.80;;;0.80;;
10979;SDS011;5543;51.734;8.744;2023-05-10T13:29:20;0.63;;;0.63;;
10979;SDS011;5543;51.734;8.744;2023-05-10T13:31:50;0.85;;;0.82;;
10979;SDS011;5543;51.734;8.744;2023-05-10T13:34:18;0.73;;;0.73;;
10979;SDS011;5543;51.734;8.744;2023-05-10T13:36:47;0.52;;;0.50;;
10979;SDS011;5543;51.734;8.744;2023-05-10T13:39:16;0.65;;;0.65;;
10979;SDS011;5543;51.734;8.744;2023-05-10T13:41:44;1.20;;;1.10;;
10979;SDS011;5543;51.734;8.744;2023-05-10T13:44:13;0.82;;;0.70;;
10979;SDS011;5543;51.734;8.744;2023-05-10T13:46:42;1.40;;;1.02;;
10979;SDS011;5543;51.734;8.744;2023-05-10T13:49:13;1.10;;;0.88;;
10979;SDS011;5543;51.734;8.744;2023-05-10T13:51:42;1.00;;;0.82;;
10979;SDS011;5543;51.734;8.744;2023-05-10T13:54:10;1.35;;;1.25;;
10979;SDS011;5543;51.734;8.744;2023-05-10T13:56:39;1.23;;;1.13;;
10979;SDS011;5543;51.734;8.744;2023-05-10T13:59:08;1.30;;;1.20;;
10979;SDS011;5543;51.734;8.744;2023-05-10T14:01:36;0.80;;;0.80;;
10979;SDS011;5543;51.734;8.744;2023-05-10T14:04:04;2.33;;;1.30;;
10979;SDS011;5543;51.734;8.744;2023-05-10T14:06:38;1.48;;;1.20;;
10979;SDS011;5543;51.734;8.744;2023-05-10T14:09:08;1.90;;;1.60;;
10979;SDS011;5543;51.734;8.744;2023-05-10T14:11:37;1.90;;;1.20;;
10979;SDS011;5543;51.734;8.744;2023-05-10T14:14:09;2.85;;;1.40;;
10979;SDS011;5543;51.734;8.744;2023-05-10T14:16:41;2.85;;;1.73;;
10979;SDS011;5543;51.734;8.744;2023-05-10T14:19:12;1.60;;;1.40;;
10979;SDS011;5543;51.734;8.744;2023-05-10T14:21:43;1.17;;;0.95;;
10979;SDS011;5543;51.734;8.744;2023-05-10T14:24:12;1.33;;;1.17;;
10979;SDS011;5543;51.734;8.744;2023-05-10T14:26:42;1.30;;;1.15;;
10979;SDS011;5543;51.734;8.744;2023-05-10T14:29:11;2.53;;;1.15;;
10979;SDS011;5543;51.734;8.744;2023-05-10T14:31:40;2.95;;;1.40;;
10979;SDS011;5543;51.734;8.744;2023-05-10T14:34:08;1.58;;;1.40;;
10979;SDS011;5543;51.734;8.744;2023-05-10T14:36:37;2.05;;;1.52;;
10979;SDS011;5543;51.734;8.744;2023-05-10T14:39:08;1.73;;;1.17;;
10979;SDS011;5543;51.734;8.744;2023-05-10T14:41:39;1.95;;;1.42;;
10979;SDS011;5543;51.734;8.744;2023-05-10T14:44:09;1.25;;;1.08;;
10979;SDS011;5543;51.734;8.744;2023-05-10T14:46:38;1.42;;;1.30;;
10979;SDS011;5543;51.734;8.744;2023-05-10T14:49:07;2.15;;;1.20;;
10979;SDS011;5543;51.734;8.744;2023-05-10T14:51:38;1.48;;;1.38;;
10979;SDS011;5543;51.734;8.744;2023-05-10T14:54:08;1.35;;;1.20;;
10979;SDS011;5543;51.734;8.744;2023-05-10T14:56:36;1.90;;;1.17;;
10979;SDS011;5543;51.734;8.744;2023-05-10T14:59:05;1.40;;;1.05;;
10979;SDS011;5543;51.734;8.744;2023-05-10T15:01:34;2.38;;;1.45;;
10979;SDS011;5543;51.734;8.744;2023-05-10T15:04:04;1.73;;;1.17;;
10979;SDS011;5543;51.734;8.744;2023-05-10T15:06:33;1.55;;;1.45;;
10979;SDS011;5543;51.734;8.744;2023-05-10T15:09:03;1.10;;;0.98;;
10979;SDS011;5543;51.734;8.744;2023-05-10T15:11:34;1.45;;;1.35;;
10979;SDS011;5543;51.734;8.744;2023-05-10T15:14:03;1.17;;;1.00;;
10979;SDS011;5543;51.734;8.744;2023-05-10T15:16:32;1.45;;;1.17;;
10979;SDS011;5543;51.734;8.744;2023-05-10T15:19:01;1.55;;;1.30;;
10979;SDS011;5543;51.734;8.744;2023-05-10T15:21:31;1.33;;;1.20;;
10979;SDS011;5543;51.734;8.744;2023-05-10T15:24:05;2.50;;;1.75;;
10979;SDS011;5543;51.734;8.744;2023-05-10T15:26:35;1.45;;;1.33;;
10979;SDS011;5543;51.734;8.744;2023-05-10T15:29:03;1.52;;;1.42;;